Time;durP1;ratioP1;P1;durP2;ratioP2;P2;SDS_P1;SDS_P2;PMS_P1;PMS_P2;Temp;Humidity;BMP_temperature;BMP_pressure;BME280_temperature;BME280_humidity;BME280_pressure;Samples;Min_cycle;Max_cycle;Signal;HPM_P1;HPM_P2
2021/07/12 00:00:17;;;;;;;1.85;1.75;;;;;;;17.31;77.05;98637.41;5030996;28;20327;-63
2021/07/12 00:02:43;;;;;;;2.10;2.00;;;;;;;17.28;77.30;98624.56;5026454;28;20041;-63
2021/07/12 00:05:09;;;;;;;2.00;1.80;;;;;;;17.30;77.53;98625.34;5028521;28;20061;-63
2021/07/12 00:07:35;;;;;;;1.95;1.85;;;;;;;17.32;77.53;98636.47;5024753;28;20279;-63
2021/07/12 00:10:00;;;;;;;1.50;1.40;;;;;;;17.31;77.98;98633.03;5024919;28;20605;-63
2021/07/12 00:12:26;;;;;;;1.75;1.65;;;;;;;17.32;78.14;98645.09;5026840;28;20114;-63
2021/07/12 00:14:51;;;;;;;2.20;2.10;;;;;;;17.38;77.94;98653.50;5030798;28;20076;-63
2021/07/12 00:17:17;;;;;;;1.95;1.85;;;;;;;17.39;78.06;98644.81;5032229;28;20048;-63
2021/07/12 00:19:42;;;;;;;1.85;1.75;;;;;;;17.31;77.87;98646.00;5027383;28;20053;-63
2021/07/12 00:22:08;;;;;;;2.17;1.92;;;;;;;17.29;78.16;98645.25;5024076;28;20492;-63
2021/07/12 00:24:33;;;;;;;2.10;2.00;;;;;;;17.33;77.71;98636.41;5028774;28;20137;-63
2021/07/12 00:26:58;;;;;;;2.15;1.98;;;;;;;17.33;77.30;98636.41;5025936;28;20092;-64
2021/07/12 00:29:24;;;;;;;2.13;2.03;;;;;;;17.29;77.38;98640.06;5029226;28;20038;-63
2021/07/12 00:31:49;;;;;;;2.22;2.13;;;;;;;17.22;77.20;98636.06;5030638;28;20052;-63
2021/07/12 00:34:15;;;;;;;2.00;1.90;;;;;;;17.25;76.55;98642.84;5026291;28;20040;-63
2021/07/12 00:36:40;;;;;;;1.88;1.73;;;;;;;17.20;75.84;98642.22;5034418;28;20043;-63
2021/07/12 00:39:06;;;;;;;1.77;1.67;;;;;;;17.15;75.81;98634.66;5030670;28;20282;-63
2021/07/12 00:41:31;;;;;;;1.88;1.77;;;;;;;17.10;76.25;98641.78;5026553;28;20123;-62
2021/07/12 00:43:57;;;;;;;1.63;1.60;;;;;;;17.06;75.93;98647.19;5028100;28;20045;-63
2021/07/12 00:46:22;;;;;;;1.58;1.50;;;;;;;17.07;75.61;98647.13;5024437;28;20422;-63
2021/07/12 00:48:49;;;;;;;1.80;1.70;;;;;;;17.09;75.73;98647.06;5029154;28;20033;-63
2021/07/12 00:51:15;;;;;;;2.30;2.10;;;;;;;17.06;75.25;98642.84;5023460;28;20041;-63
2021/07/12 00:53:40;;;;;;;1.95;1.85;;;;;;;17.00;75.65;98640.53;5030791;28;20040;-63
2021/07/12 00:56:07;;;;;;;1.88;1.77;;;;;;;17.01;75.58;98631.84;5026016;28;20044;-63
2021/07/12 00:58:33;;;;;;;2.22;2.13;;;;;;;17.01;75.52;98649.16;5029136;28;20540;-63
2021/07/12 01:01:02;;;;;;;2.15;1.92;;;;;;;17.05;76.16;98653.28;5029202;28;20039;-63
2021/07/12 01:03:28;;;;;;;2.15;2.00;;;;;;;16.99;76.01;98638.00;5029567;28;20047;-63
2021/07/12 01:05:54;;;;;;;1.90;1.80;;;;;;;17.03;76.00;98632.63;5027494;28;20037;-63
2021/07/12 01:08:20;;;;;;;2.10;2.00;;;;;;;16.95;76.16;98629.53;5035322;28;20029;-63
2021/07/12 01:10:55;;;;;;;2.17;2.00;;;;;;;16.97;75.73;98627.72;5029252;28;20647;-63
2021/07/12 01:13:29;;;;;;;2.10;1.55;;;;;;;17.04;75.13;98631.72;5027129;28;20064;-63
2021/07/12 01:16:19;;;;;;;2.03;1.92;;;;;;;17.14;74.72;98619.19;5033295;28;20029;-64
2021/07/12 01:19:18;;;;;;;2.08;1.85;;;;;;;17.02;75.70;98617.97;5027757;28;20042;-63
2021/07/12 01:21:46;;;;;;;1.90;1.80;;;;;;;17.06;75.85;98626.47;5030541;28;20037;-63
2021/07/12 01:24:23;;;;;;;2.05;1.95;;;;;;;17.05;75.94;98623.03;5033068;28;20108;-64
2021/07/12 01:27:27;;;;;;;1.63;1.52;;;;;;;16.98;76.22;98626.78;5029662;28;20032;-64
2021/07/12 01:30:12;;;;;;;2.40;1.58;;;;;;;16.99;75.95;98619.88;5012431;28;20118;-63
2021/07/12 01:32:56;;;;;;;2.13;2.03;;;;;;;17.02;76.16;98625.75;5031858;28;20029;-64
2021/07/12 01:35:40;;;;;;;2.05;1.95;;;;;;;16.90;75.88;98628.88;5029268;28;20113;-63
2021/07/12 01:38:43;;;;;;;2.00;1.90;;;;;;;16.87;76.51;98613.50;5033510;28;20045;-63
2021/07/12 01:41:27;;;;;;;1.70;1.60;;;;;;;16.75;77.01;98611.47;5021757;28;20041;-63
2021/07/12 01:44:33;;;;;;;2.35;2.05;;;;;;;16.67;77.15;98610.97;5030251;28;20029;-64
2021/07/12 01:47:07;;;;;;;2.30;2.10;;;;;;;16.60;77.47;98612.09;5032190;28;20033;-63
2021/07/12 01:50:13;;;;;;;2.00;1.90;;;;;;;16.42;78.24;98603.38;5034384;28;20355;-63
2021/07/12 01:52:44;;;;;;;1.98;1.88;;;;;;;16.45;78.17;98598.06;5032746;28;20388;-63
2021/07/12 01:55:20;;;;;;;1.80;1.70;;;;;;;16.39;78.61;98594.00;5032453;28;20105;-63
2021/07/12 01:58:16;;;;;;;2.00;1.80;;;;;;;16.30;78.88;98599.56;5033300;28;20029;-63
2021/07/12 02:00:45;;;;;;;2.85;1.92;;;;;;;16.21;79.82;98599.13;5030772;28;20041;-63
2021/07/12 02:03:15;;;;;;;2.42;2.22;;;;;;;16.29;79.18;98600.47;5031297;28;20037;-63
2021/07/12 02:05:42;;;;;;;2.88;2.67;;;;;;;16.18;79.28;98600.06;5032419;28;20025;-63
2021/07/12 02:08:08;;;;;;;2.00;1.90;;;;;;;16.13;79.50;98599.41;5030909;28;20451;-63
2021/07/12 02:10:35;;;;;;;2.38;2.17;;;;;;;16.04;79.59;98599.78;5028365;28;20029;-63
2021/07/12 02:13:01;;;;;;;2.30;2.10;;;;;;;15.95;80.28;98587.28;5032950;28;20377;-63
2021/07/12 02:15:27;;;;;;;2.25;2.05;;;;;;;15.92;80.04;98585.63;5027160;28;20025;-63
2021/07/12 02:17:55;;;;;;;1.90;1.80;;;;;;;15.87;80.16;98581.59;5029950;28;20037;-63
2021/07/12 02:20:25;;;;;;;2.15;2.05;;;;;;;15.84;80.30;98579.94;5030188;28;20054;-63
2021/07/12 02:22:53;;;;;;;2.30;2.10;;;;;;;15.85;79.60;98581.63;5026855;28;20041;-63
2021/07/12 02:25:18;;;;;;;1.90;1.80;;;;;;;15.78;80.08;98576.78;5029605;28;20026;-63
2021/07/12 02:27:44;;;;;;;2.00;1.85;;;;;;;15.75;80.76;98572.56;5032782;28;20138;-63
2021/07/12 02:30:10;;;;;;;1.98;1.88;;;;;;;15.78;79.36;98566.44;5027865;28;20021;-63
2021/07/12 02:32:37;;;;;;;2.00;1.90;;;;;;;15.75;79.91;98561.38;5029822;28;20045;-63
2021/07/12 02:35:06;;;;;;;1.90;1.80;;;;;;;15.73;80.77;98563.19;5032639;28;20064;-63
2021/07/12 02:37:36;;;;;;;1.95;1.85;;;;;;;15.76;80.44;98568.22;5032417;28;20379;-63
2021/07/12 02:40:04;;;;;;;2.40;2.20;;;;;;;15.76;80.65;98565.66;5030887;28;20279;-63
2021/07/12 02:42:29;;;;;;;2.38;2.28;;;;;;;15.74;80.56;98567.47;5028208;28;20063;-63
2021/07/12 02:44:58;;;;;;;2.40;2.20;;;;;;;15.81;79.98;98569.75;5032172;28;20033;-63
2021/07/12 02:47:23;;;;;;;2.90;2.53;;;;;;;15.83;79.89;98567.91;5030764;28;20045;-63
2021/07/12 02:49:49;;;;;;;2.25;1.90;;;;;;;15.84;80.65;98582.53;5026746;28;20040;-63
2021/07/12 02:52:23;;;;;;;2.67;2.10;;;;;;;15.82;80.33;98586.94;5029802;28;20248;-63
2021/07/12 02:54:51;;;;;;;2.17;2.07;;;;;;;15.83;80.23;98585.16;5028963;28;20128;-63
2021/07/12 02:57:17;;;;;;;2.20;2.00;;;;;;;15.83;80.33;98587.75;5030597;28;20045;-63
2021/07/12 02:59:42;;;;;;;2.33;2.22;;;;;;;15.87;80.34;98594.50;5032151;28;20030;-63
2021/07/12 03:02:08;;;;;;;1.95;1.85;;;;;;;15.83;80.52;98588.59;5031559;28;20109;-63
2021/07/12 03:04:33;;;;;;;4.40;2.55;;;;;;;15.83;80.46;98587.75;5029389;28;20083;-63
2021/07/12 03:07:07;;;;;;;2.17;1.98;;;;;;;15.84;80.57;98573.94;5027142;28;20342;-63
2021/07/12 03:09:39;;;;;;;3.60;2.20;;;;;;;15.88;79.78;98580.66;5026296;28;20037;-63
2021/07/12 03:12:21;;;;;;;2.55;2.35;;;;;;;15.88;79.78;98580.66;5032096;28;20033;-62
2021/07/12 03:15:00;;;;;;;2.22;2.13;;;;;;;15.72;80.08;98583.03;5027149;28;20034;-62
2021/07/12 03:17:28;;;;;;;2.22;2.13;;;;;;;15.66;80.56;98577.28;5029878;28;20033;-63
2021/07/12 03:19:57;;;;;;;2.10;2.00;;;;;;;15.60;81.08;98586.13;5028133;28;20061;-63
2021/07/12 03:22:23;;;;;;;2.30;2.20;;;;;;;15.53;81.11;98577.75;5032310;28;20037;-63
2021/07/12 03:24:50;;;;;;;2.00;1.90;;;;;;;15.48;81.70;98577.06;5031399;28;20025;-63
2021/07/12 03:27:19;;;;;;;2.20;2.00;;;;;;;15.44;81.25;98572.94;5031258;28;20334;-63
2021/07/12 03:29:45;;;;;;;2.20;2.10;;;;;;;15.41;81.41;98575.63;5030677;28;20029;-63
2021/07/12 03:32:13;;;;;;;3.05;2.72;;;;;;;15.38;81.78;98575.75;5033705;28;20013;-63
2021/07/12 03:34:40;;;;;;;1.98;1.88;;;;;;;15.32;82.73;98577.75;5031745;28;20034;-63
2021/07/12 03:37:06;;;;;;;2.53;2.17;;;;;;;15.27;82.43;98582.25;5033656;28;20050;-63
2021/07/12 03:39:33;;;;;;;2.10;2.00;;;;;;;15.26;82.37;98580.56;5033886;28;20040;-63
2021/07/12 03:41:58;;;;;;;2.60;2.40;;;;;;;15.23;83.14;98571.19;5028834;28;20021;-63
2021/07/12 03:44:24;;;;;;;1.85;1.75;;;;;;;15.27;83.53;98585.66;5028977;28;20320;-63
2021/07/12 03:46:50;;;;;;;2.25;2.15;;;;;;;15.26;83.22;98589.16;5027021;28;20072;-64
2021/07/12 03:49:18;;;;;;;2.20;2.10;;;;;;;15.32;83.08;98585.50;5028388;28;20128;-63
2021/07/12 03:51:47;;;;;;;2.30;1.98;;;;;;;15.43;83.06;98589.34;5026725;28;20036;-63
2021/07/12 03:54:13;;;;;;;2.10;1.83;;;;;;;15.51;82.33;98601.97;5031266;28;20038;-63
2021/07/12 03:56:38;;;;;;;1.90;1.80;;;;;;;15.54;81.75;98597.53;5028527;28;20053;-63
2021/07/12 03:59:04;;;;;;;2.78;2.00;;;;;;;15.61;81.56;98598.13;5028997;28;20118;-63
2021/07/12 04:01:29;;;;;;;2.75;2.55;;;;;;;15.75;81.23;98600.16;5026384;28;20029;-63
2021/07/12 04:03:55;;;;;;;2.60;1.80;;;;;;;15.76;80.69;98591.50;5028245;28;20410;-63
2021/07/12 04:06:21;;;;;;;3.60;2.25;;;;;;;15.86;80.53;98591.06;5030054;28;20466;-63
2021/07/12 04:08:47;;;;;;;2.40;2.30;;;;;;;15.93;79.82;98578.72;5028378;28;20120;-63
2021/07/12 04:11:14;;;;;;;2.13;2.03;;;;;;;16.12;79.25;98594.34;5026131;28;20275;-62
2021/07/12 04:13:39;;;;;;;2.03;1.92;;;;;;;16.25;77.73;98596.31;5030828;28;20033;-62
2021/07/12 04:16:05;;;;;;;2.00;1.90;;;;;;;16.31;78.00;98600.41;5022079;28;20030;-62
2021/07/12 04:18:31;;;;;;;2.15;2.00;;;;;;;16.43;77.12;98598.13;5028152;28;20067;-62
2021/07/12 04:20:59;;;;;;;2.15;2.05;;;;;;;16.57;76.79;98586.34;5032796;28;20065;-62
2021/07/12 04:23:25;;;;;;;1.90;1.80;;;;;;;16.64;76.70;98587.78;5030183;28;20037;-62
2021/07/12 04:25:50;;;;;;;2.60;2.42;;;;;;;16.74;75.30;98578.69;5028555;28;20065;-64
2021/07/12 04:28:16;;;;;;;3.05;2.08;;;;;;;16.94;75.49;98575.19;5029236;28;20040;-63
2021/07/12 04:30:41;;;;;;;2.30;2.10;;;;;;;16.96;74.50;98566.47;5029495;28;20037;-63
2021/07/12 04:33:07;;;;;;;2.30;2.08;;;;;;;17.00;74.86;98569.75;5030703;28;20044;-63
2021/07/12 04:35:32;;;;;;;2.95;2.25;;;;;;;17.16;74.15;98561.19;5028717;28;20118;-64
2021/07/12 04:37:58;;;;;;;2.55;2.35;;;;;;;17.33;73.23;98568.19;5023242;28;20044;-63
2021/07/12 04:40:24;;;;;;;2.72;2.53;;;;;;;17.38;73.18;98558.44;5025573;28;20044;-64
2021/07/12 04:42:49;;;;;;;2.78;2.58;;;;;;;17.47;73.39;98557.16;5027247;28;20040;-64
2021/07/12 04:45:15;;;;;;;4.03;3.28;;;;;;;17.50;72.30;98549.22;5025394;28;20326;-64
2021/07/12 04:47:40;;;;;;;2.95;2.75;;;;;;;17.68;71.93;98549.22;5026342;28;20657;-63
2021/07/12 04:50:07;;;;;;;3.17;2.88;;;;;;;17.76;71.02;98551.44;5027018;28;20033;-63
2021/07/12 04:52:33;;;;;;;2.58;2.38;;;;;;;17.76;70.87;98554.88;5029067;28;20041;-63
2021/07/12 04:55:00;;;;;;;2.25;2.15;;;;;;;17.94;70.15;98553.13;5024368;28;20045;-63
2021/07/12 04:57:25;;;;;;;2.20;2.00;;;;;;;18.05;69.76;98561.19;5029369;28;20042;-63
2021/07/12 04:59:52;;;;;;;2.28;2.17;;;;;;;18.16;69.98;98561.50;5030863;28;20056;-63
2021/07/12 05:02:17;;;;;;;2.25;2.15;;;;;;;18.36;68.87;98563.09;5027533;28;20029;-63
2021/07/12 05:04:43;;;;;;;2.22;2.13;;;;;;;18.42;69.30;98564.50;5025594;28;20044;-63
2021/07/12 05:07:13;;;;;;;2.40;2.20;;;;;;;18.34;69.47;98559.72;5027011;28;20108;-63
2021/07/12 05:09:39;;;;;;;2.40;2.30;;;;;;;18.49;69.11;98563.28;5030944;28;20580;-63
2021/07/12 05:12:08;;;;;;;2.30;2.10;;;;;;;18.56;68.26;98567.28;5024841;28;20025;-63
2021/07/12 05:14:37;;;;;;;1.90;1.80;;;;;;;18.49;67.92;98571.06;5025083;28;20119;-63
2021/07/12 05:17:03;;;;;;;2.58;2.45;;;;;;;18.36;68.14;98564.84;5028585;28;20159;-63
2021/07/12 05:19:29;;;;;;;2.05;1.90;;;;;;;18.31;67.06;98570.25;5025690;28;20132;-63
2021/07/12 05:21:54;;;;;;;2.38;2.22;;;;;;;18.34;67.64;98572.69;5027450;28;20041;-63
2021/07/12 05:24:19;;;;;;;2.25;1.95;;;;;;;18.40;67.36;98566.34;5025612;28;20212;-63
2021/07/12 05:26:45;;;;;;;2.60;2.50;;;;;;;18.52;68.37;98568.31;5024971;28;20044;-63
2021/07/12 05:29:10;;;;;;;2.47;2.22;;;;;;;18.75;66.43;98574.94;5023779;28;20079;-63
2021/07/12 05:31:36;;;;;;;2.22;2.00;;;;;;;18.70;66.43;98572.59;5025038;28;20036;-63
2021/07/12 05:34:01;;;;;;;2.20;2.10;;;;;;;19.00;65.30;98568.38;5030335;28;20095;-63
2021/07/12 05:36:26;;;;;;;3.03;2.40;;;;;;;18.97;67.39;98563.31;5030558;28;20460;-63
2021/07/12 05:38:53;;;;;;;2.08;1.98;;;;;;;19.18;65.76;98562.13;5028759;28;20394;-63
2021/07/12 05:41:18;;;;;;;1.98;1.70;;;;;;;19.36;65.10;98556.84;5029864;28;20037;-63
2021/07/12 05:43:43;;;;;;;3.08;2.17;;;;;;;19.41;64.57;98562.63;5028723;28;20294;-63
2021/07/12 05:46:09;;;;;;;2.05;1.95;;;;;;;19.47;64.98;98560.59;5025139;28;20029;-63
2021/07/12 05:48:34;;;;;;;1.80;1.70;;;;;;;19.54;63.88;98561.91;5026627;28;20034;-63
2021/07/12 05:51:00;;;;;;;2.03;1.92;;;;;;;19.66;64.29;98562.13;5027011;28;20029;-63
2021/07/12 05:53:25;;;;;;;1.92;1.83;;;;;;;19.85;63.34;98549.75;5025351;28;20748;-63
2021/07/12 05:55:51;;;;;;;2.20;2.00;;;;;;;19.99;64.06;98558.41;5035062;28;20042;-62
2021/07/12 05:58:16;;;;;;;2.45;2.35;;;;;;;20.12;63.60;98558.53;5030542;28;20033;-63
2021/07/12 06:00:42;;;;;;;2.20;2.03;;;;;;;20.06;62.10;98551.94;5029137;28;20045;-63
2021/07/12 06:03:07;;;;;;;2.05;1.95;;;;;;;20.16;64.14;98551.38;5024969;28;20039;-63
2021/07/12 06:05:33;;;;;;;2.40;2.20;;;;;;;20.05;63.05;98547.66;5025643;28;20051;-64
2021/07/12 06:07:59;;;;;;;2.33;2.22;;;;;;;20.21;62.76;98541.53;5029847;28;20450;-63
2021/07/12 06:10:24;;;;;;;2.33;2.22;;;;;;;20.32;61.42;98537.44;5032281;28;20045;-63
2021/07/12 06:12:50;;;;;;;1.92;1.83;;;;;;;20.40;61.29;98539.56;5034159;28;20037;-63
2021/07/12 06:15:15;;;;;;;1.73;1.63;;;;;;;20.47;61.97;98536.50;5032744;28;20040;-63
2021/07/12 06:17:41;;;;;;;2.20;2.10;;;;;;;20.54;61.58;98538.75;5029839;28;20040;-63
2021/07/12 06:20:08;;;;;;;2.28;2.05;;;;;;;20.67;60.91;98531.81;5030690;28;20095;-63
2021/07/12 06:22:34;;;;;;;2.13;2.03;;;;;;;20.97;60.81;98528.16;5029115;28;20124;-63
2021/07/12 06:24:59;;;;;;;2.22;2.03;;;;;;;21.11;59.96;98532.50;5029234;28;20532;-61
2021/07/12 06:27:25;;;;;;;2.33;2.13;;;;;;;21.16;59.49;98530.47;5030340;28;20120;-62
2021/07/12 06:29:50;;;;;;;2.03;1.92;;;;;;;21.39;58.78;98529.00;5029278;28;20040;-62
2021/07/12 06:32:16;;;;;;;2.42;2.13;;;;;;;21.39;58.08;98535.06;5024608;28;20022;-61
2021/07/12 06:34:41;;;;;;;2.40;2.25;;;;;;;21.37;59.41;98525.66;5026087;28;20307;-63
2021/07/12 06:37:06;;;;;;;1.77;1.67;;;;;;;21.37;57.90;98525.66;5028772;28;20051;-62
2021/07/12 06:39:32;;;;;;;2.58;1.73;;;;;;;21.29;57.04;98525.31;5034732;28;20103;-62
2021/07/12 06:41:57;;;;;;;1.70;1.60;;;;;;;21.55;57.11;98528.88;5023557;28;20029;-62
2021/07/12 06:44:23;;;;;;;1.70;1.60;;;;;;;21.42;56.59;98534.03;5025615;28;20447;-63
2021/07/12 06:46:48;;;;;;;1.92;1.83;;;;;;;21.59;56.30;98525.97;5033104;28;20033;-62
2021/07/12 06:49:13;;;;;;;1.70;1.60;;;;;;;21.77;56.48;98516.06;5028881;28;20302;-63
2021/07/12 06:51:39;;;;;;;1.73;1.63;;;;;;;21.82;56.70;98517.44;5032801;28;20043;-63
2021/07/12 06:54:04;;;;;;;1.73;1.55;;;;;;;21.94;55.57;98513.19;5030078;28;20301;-62
2021/07/12 06:56:30;;;;;;;2.47;1.70;;;;;;;22.17;55.08;98509.03;5029104;28;20063;-63
2021/07/12 06:58:56;;;;;;;2.08;1.98;;;;;;;22.10;56.14;98510.41;5025630;28;20289;-63
2021/07/12 07:01:21;;;;;;;2.05;1.95;;;;;;;22.26;54.29;98504.03;5028280;28;20082;-63
2021/07/12 07:03:46;;;;;;;2.38;2.17;;;;;;;22.38;54.30;98509.34;5029080;28;20033;-62
2021/07/12 07:06:12;;;;;;;1.85;1.75;;;;;;;22.25;53.78;98504.13;5029256;28;20033;-62
2021/07/12 07:08:37;;;;;;;1.90;1.80;;;;;;;22.48;53.49;98502.56;5030605;28;20060;-63
2021/07/12 07:11:04;;;;;;;1.48;1.38;;;;;;;22.63;53.30;98504.94;5028220;28;20032;-68
2021/07/12 07:13:29;;;;;;;2.55;1.48;;;;;;;22.61;52.79;98506.84;5029282;28;20026;-69
2021/07/12 07:15:55;;;;;;;1.20;1.15;;;;;;;22.82;53.34;98506.28;5025166;28;20285;-69
2021/07/12 07:18:20;;;;;;;1.60;1.55;;;;;;;22.89;51.60;98503.13;5026294;28;20371;-69
2021/07/12 07:20:45;;;;;;;1.23;1.23;;;;;;;22.70;50.60;98500.16;5030999;28;20038;-68
2021/07/12 07:23:11;;;;;;;1.85;1.75;;;;;;;22.75;50.43;98498.88;5030285;28;20029;-69
2021/07/12 07:25:37;;;;;;;1.70;1.60;;;;;;;22.76;52.84;98508.41;5030830;28;20136;-68
2021/07/12 07:28:03;;;;;;;1.52;1.50;;;;;;;22.90;50.78;98503.97;5031040;28;20351;-68
2021/07/12 07:30:30;;;;;;;1.58;1.48;;;;;;;23.07;50.10;98504.44;5028466;28;20393;-68
2021/07/12 07:32:55;;;;;;;1.33;1.33;;;;;;;23.08;50.75;98497.44;5026560;28;20125;-69
2021/07/12 07:35:21;;;;;;;1.52;1.50;;;;;;;23.16;50.00;98495.09;5025602;28;20043;-68
2021/07/12 07:37:47;;;;;;;1.45;1.45;;;;;;;23.19;48.92;98497.50;5027384;28;20498;-69
2021/07/12 07:40:15;;;;;;;1.67;1.65;;;;;;;23.42;47.93;98493.22;5026141;28;20148;-69
2021/07/12 07:42:40;;;;;;;1.25;1.25;;;;;;;23.53;44.68;98493.28;5028928;28;20068;-69
2021/07/12 07:45:09;;;;;;;1.10;1.10;;;;;;;23.62;43.88;98487.38;5030197;28;20037;-69
2021/07/12 07:47:34;;;;;;;1.55;1.45;;;;;;;23.77;45.97;98487.97;5028517;28;20032;-69
2021/07/12 07:50:00;;;;;;;1.50;1.40;;;;;;;23.77;46.26;98486.22;5027226;28;20097;-69
2021/07/12 07:52:25;;;;;;;1.90;1.80;;;;;;;23.82;47.51;98481.47;5026565;28;20049;-69
2021/07/12 07:54:51;;;;;;;1.77;1.50;;;;;;;23.86;47.22;98484.69;5032081;28;20045;-68
2021/07/12 07:57:17;;;;;;;3.63;1.60;;;;;;;24.10;46.38;98478.41;5028790;28;20382;-69
2021/07/12 07:59:43;;;;;;;2.35;1.65;;;;;;;24.15;46.48;98478.09;5025231;28;20461;-69
2021/07/12 08:02:08;;;;;;;1.95;1.85;;;;;;;24.39;43.96;98468.38;5028782;28;20044;-69
2021/07/12 08:04:34;;;;;;;3.60;1.90;;;;;;;24.44;43.62;98468.81;5030089;28;20286;-69
2021/07/12 08:06:59;;;;;;;3.75;1.98;;;;;;;24.23;44.44;98454.75;5028575;28;20029;-69
2021/07/12 08:09:25;;;;;;;4.40;2.30;;;;;;;24.33;45.13;98450.47;5026132;28;20066;-69
2021/07/12 08:11:51;;;;;;;7.80;2.08;;;;;;;24.39;44.92;98442.16;5027696;28;20048;-70
2021/07/12 08:14:18;;;;;;;3.10;1.85;;;;;;;24.51;44.57;98443.81;5026330;28;20036;-69
2021/07/12 08:16:45;;;;;;;4.72;1.80;;;;;;;24.67;44.65;98446.03;5031096;28;20033;-69
2021/07/12 08:19:10;;;;;;;5.00;1.95;;;;;;;24.84;46.29;98455.19;5023906;28;20103;-70
2021/07/12 08:21:36;;;;;;;3.72;2.08;;;;;;;24.86;45.85;98448.06;5027983;28;20033;-69
2021/07/12 08:24:01;;;;;;;4.20;2.10;;;;;;;25.04;44.93;98451.81;5029372;28;20346;-68
2021/07/12 08:26:27;;;;;;;7.57;2.20;;;;;;;25.13;43.52;98452.88;5027085;28;20049;-68
2021/07/12 08:28:52;;;;;;;3.45;1.98;;;;;;;25.23;43.47;98445.94;5025289;28;20037;-68
2021/07/12 08:31:18;;;;;;;4.45;1.77;;;;;;;25.35;41.47;98440.50;5029198;28;20037;-68
2021/07/12 08:33:44;;;;;;;2.42;2.10;;;;;;;25.21;42.09;98443.41;5029089;28;20263;-69
2021/07/12 08:36:09;;;;;;;3.13;2.28;;;;;;;25.46;40.96;98442.25;5030043;28;20025;-69
2021/07/12 08:38:35;;;;;;;2.53;1.70;;;;;;;25.29;40.79;98441.00;5024927;28;20056;-69
2021/07/12 08:41:01;;;;;;;2.03;1.40;;;;;;;25.61;41.85;98434.94;5028002;28;20096;-69
2021/07/12 08:43:27;;;;;;;3.45;1.50;;;;;;;25.47;40.34;98442.13;5026920;28;20026;-69
2021/07/12 08:45:52;;;;;;;4.05;1.55;;;;;;;25.44;40.46;98441.53;5028468;28;20033;-69
2021/07/12 08:48:18;;;;;;;2.33;1.50;;;;;;;25.61;40.00;98434.94;5023918;28;20044;-69
2021/07/12 08:50:45;;;;;;;1.67;1.58;;;;;;;25.86;38.19;98426.66;5025406;28;20033;-69
2021/07/12 08:53:13;;;;;;;3.25;1.50;;;;;;;25.98;38.20;98425.59;5028100;28;20107;-69
2021/07/12 08:55:38;;;;;;;2.30;2.10;;;;;;;26.08;39.72;98431.75;5028674;28;20029;-68
2021/07/12 08:58:19;;;;;;;3.08;1.98;;;;;;;25.96;40.95;98424.91;5026143;28;20037;-69
2021/07/12 09:00:45;;;;;;;2.00;1.90;;;;;;;26.22;39.26;98415.69;5024812;28;20468;-69
2021/07/12 09:03:18;;;;;;;1.77;1.67;;;;;;;26.01;39.44;98411.41;5026629;28;20036;-69
2021/07/12 09:05:54;;;;;;;4.80;2.30;;;;;;;26.16;40.83;98417.94;5029145;28;20132;-68
2021/07/12 09:08:47;;;;;;;2.80;2.40;;;;;;;26.16;41.18;98415.31;5023984;28;20229;-68
2021/07/12 09:11:13;;;;;;;3.28;2.17;;;;;;;26.22;41.22;98415.69;5024057;28;20376;-68
2021/07/12 09:14:03;;;;;;;1.90;1.80;;;;;;;26.16;41.45;98403.03;5026053;28;20071;-68
2021/07/12 09:16:39;;;;;;;3.00;2.75;;;;;;;26.35;41.46;98402.31;5026988;28;20036;-69
2021/07/12 09:19:15;;;;;;;3.00;2.00;;;;;;;26.24;40.94;98392.69;5025414;28;20068;-69
2021/07/12 09:21:51;;;;;;;2.40;2.20;;;;;;;26.38;40.64;98395.94;5028452;28;20033;-69
2021/07/12 09:24:24;;;;;;;2.05;1.95;;;;;;;26.38;42.25;98402.03;5029540;28;20048;-69
2021/07/12 09:26:53;;;;;;;4.53;2.80;;;;;;;26.59;40.41;98394.88;5023587;28;20034;-68
2021/07/12 09:29:21;;;;;;;3.38;3.08;;;;;;;26.71;42.12;98398.22;5024684;28;20057;-69
2021/07/12 09:31:48;;;;;;;2.58;2.47;;;;;;;26.71;41.24;98387.69;5021266;28;20036;-69
2021/07/12 09:34:14;;;;;;;4.18;2.70;;;;;;;26.55;42.33;98385.59;5031514;28;20464;-69
2021/07/12 09:36:40;;;;;;;2.63;2.15;;;;;;;26.66;43.33;98388.09;5031708;28;20363;-69
2021/07/12 09:39:43;;;;;;;2.78;2.35;;;;;;;26.94;42.34;98383.06;5024454;28;20071;-68
2021/07/12 09:42:12;;;;;;;2.58;2.47;;;;;;;26.98;41.33;98380.03;5028697;28;20045;-69
2021/07/12 09:44:41;;;;;;;3.75;3.15;;;;;;;27.04;44.17;98382.09;5031257;28;20094;-68
2021/07/12 09:47:13;;;;;;;4.30;2.50;;;;;;;27.16;43.97;98374.88;5035404;28;20052;-68
2021/07/12 09:49:39;;;;;;;4.18;2.88;;;;;;;27.23;43.29;98371.56;5029931;28;20322;-69
2021/07/12 09:52:08;;;;;;;2.75;2.60;;;;;;;27.26;43.29;98363.38;5032142;28;20026;-68
2021/07/12 09:54:37;;;;;;;3.15;2.95;;;;;;;27.22;43.08;98372.53;5030321;28;20276;-67
2021/07/12 09:57:18;;;;;;;3.08;2.88;;;;;;;27.44;43.03;98371.41;5030817;28;20052;-67
2021/07/12 10:00:01;;;;;;;3.45;2.47;;;;;;;27.66;43.48;98367.66;5032494;28;20041;-66
2021/07/12 10:02:29;;;;;;;44.92;15.90;;;;;;;27.59;43.62;98370.00;5030676;28;20033;-67
2021/07/12 10:04:59;;;;;;;20.92;8.65;;;;;;;27.64;43.70;98370.41;5030949;28;20025;-66
2021/07/12 10:07:25;;;;;;;8.15;5.03;;;;;;;27.62;43.28;98366.28;5026934;28;20026;-66
2021/07/12 10:09:51;;;;;;;3.67;3.42;;;;;;;27.48;43.25;98364.91;5032999;28;20049;-66
2021/07/12 10:12:17;;;;;;;7.28;3.85;;;;;;;27.54;45.39;98364.31;5034662;28;20052;-68
2021/07/12 10:14:42;;;;;;;10.73;5.70;;;;;;;27.59;47.43;98356.00;5037639;28;20076;-66
2021/07/12 10:17:09;;;;;;;6.63;4.95;;;;;;;27.73;44.05;98349.44;5030620;28;20033;-65
2021/07/12 10:19:36;;;;;;;33.78;13.52;;;;;;;27.73;45.12;98352.09;5028193;28;20049;-67
2021/07/12 10:22:04;;;;;;;6.47;4.55;;;;;;;27.63;45.42;98350.31;5030109;28;20095;-67
2021/07/12 10:24:44;;;;;;;17.70;10.02;;;;;;;27.62;44.60;98339.94;5031571;28;20113;-68
2021/07/12 10:27:22;;;;;;;10.50;6.90;;;;;;;27.72;45.20;98340.72;5028185;28;20409;-68
2021/07/12 10:29:49;;;;;;;3.63;3.33;;;;;;;27.94;44.58;98340.34;5032950;28;20038;-69
2021/07/12 10:32:17;;;;;;;3.10;2.90;;;;;;;28.12;42.83;98329.91;5025822;28;20052;-69
2021/07/12 10:34:57;;;;;;;3.38;3.17;;;;;;;27.97;42.42;98334.78;5029274;28;20116;-69
2021/07/12 10:37:28;;;;;;;3.40;3.17;;;;;;;27.92;42.58;98320.41;5025906;28;20037;-69
2021/07/12 10:40:11;;;;;;;4.25;3.85;;;;;;;28.08;44.34;98334.63;5023905;28;20046;-68
2021/07/12 10:42:42;;;;;;;3.83;3.53;;;;;;;28.11;43.01;98326.44;5026977;28;20391;-69
2021/07/12 10:45:20;;;;;;;3.42;3.13;;;;;;;28.11;43.14;98322.97;5031254;28;20120;-68
2021/07/12 10:47:57;;;;;;;5.43;3.35;;;;;;;27.85;43.47;98324.56;5026837;28;20118;-68
2021/07/12 10:50:34;;;;;;;5.10;4.05;;;;;;;27.62;43.83;98324.97;5027781;28;20040;-68
2021/07/12 10:53:02;;;;;;;3.58;3.28;;;;;;;27.56;43.92;98324.69;5025393;28;20315;-69
2021/07/12 10:55:34;;;;;;;3.85;3.53;;;;;;;27.68;44.10;98324.38;5032551;28;20029;-68
2021/07/12 10:58:18;;;;;;;4.00;3.80;;;;;;;27.85;43.89;98308.75;5030237;28;20275;-70
2021/07/12 11:00:44;;;;;;;4.20;3.90;;;;;;;27.98;42.99;98298.72;5033874;28;20112;-68
2021/07/12 11:03:37;;;;;;;5.68;3.53;;;;;;;28.18;43.25;98299.50;5025044;28;20438;-68
2021/07/12 11:06:08;;;;;;;3.30;3.00;;;;;;;28.59;43.04;98296.31;5029200;28;20025;-68
2021/07/12 11:08:44;;;;;;;4.20;3.72;;;;;;;28.49;43.02;98288.44;5028746;28;20033;-69
2021/07/12 11:11:38;;;;;;;3.08;2.88;;;;;;;28.83;42.09;98301.00;5028343;28;20386;-68
2021/07/12 11:14:07;;;;;;;3.40;3.28;;;;;;;28.88;41.80;98288.19;5022747;28;20037;-70
2021/07/12 11:16:42;;;;;;;3.90;3.70;;;;;;;28.92;43.37;98287.72;5030920;28;20017;-68
2021/07/12 11:19:24;;;;;;;3.65;3.45;;;;;;;28.96;41.97;98290.88;5028738;28;20132;-67
2021/07/12 11:21:51;;;;;;;4.30;4.00;;;;;;;28.85;42.83;98283.22;5028449;28;20021;-70
2021/07/12 11:24:22;;;;;;;3.97;3.67;;;;;;;29.07;44.19;98279.25;5026934;28;20030;-69
2021/07/12 11:26:52;;;;;;;5.03;3.83;;;;;;;29.29;42.00;98291.97;5029011;28;20412;-69
2021/07/12 11:29:32;;;;;;;4.03;3.78;;;;;;;28.99;41.32;98275.56;5032725;28;20035;-69
2021/07/12 11:32:05;;;;;;;3.65;3.45;;;;;;;28.87;41.98;98271.50;5030748;28;20305;-68
2021/07/12 11:34:35;;;;;;;4.15;3.95;;;;;;;28.68;43.29;98269.00;5030269;28;20059;-68
2021/07/12 11:37:10;;;;;;;4.75;4.30;;;;;;;29.09;43.59;98264.06;5026305;28;20366;-68
2021/07/12 11:39:42;;;;;;;4.40;4.07;;;;;;;29.35;42.08;98251.75;5028259;28;20033;-68
2021/07/12 11:42:38;;;;;;;5.03;4.53;;;;;;;29.40;42.27;98249.47;5024729;28;20022;-67